createdAt,value
2022-09-14T00:04:06.785Z,100736.72
2022-09-14T00:06:40.375Z,100728.38
2022-09-14T00:12:49.134Z,100730.56
2022-09-14T00:15:47.657Z,100745.88
2022-09-14T00:18:54.552Z,100734.78
2022-09-14T00:21:27.482Z,100726.19
2022-09-14T00:24:14.102Z,100726.78
2022-09-14T00:27:11.015Z,100726.50
2022-09-14T00:33:25.564Z,100731.75
2022-09-14T00:40:01.498Z,100720.03
2022-09-14T00:43:27.002Z,100719.59
2022-09-14T00:46:03.889Z,100721.28
2022-09-14T00:48:44.754Z,100714.06
2022-09-14T00:51:12.341Z,100707.47
2022-09-14T00:53:51.602Z,100698.00
2022-09-14T00:57:07.613Z,100710.84
2022-09-14T01:03:28.921Z,100711.97
2022-09-14T01:10:02.093Z,100693.72
2022-09-14T01:13:13.952Z,100721.91
2022-09-14T01:24:12.668Z,100719.09
2022-09-14T01:30:35.223Z,100701.28
2022-09-14T01:33:58.701Z,100711.53
2022-09-14T01:41:06.852Z,100703.41
2022-09-14T01:44:05.829Z,100690.03
2022-09-14T01:46:47.147Z,100695.03
2022-09-14T01:53:23.584Z,100687.13
2022-09-14T01:56:37.443Z,100686.53
2022-09-14T02:03:30.482Z,100687.53
2022-09-14T02:06:25.073Z,100685.50
2022-09-14T02:09:47.347Z,100679.63
2022-09-14T02:12:15.307Z,100670.97
2022-09-14T02:14:44.679Z,100675.06
2022-09-14T02:17:29.823Z,100675.66
2022-09-14T02:20:24.156Z,100669.19
2022-09-14T02:22:51.995Z,100673.91
2022-09-14T02:25:34.187Z,100670.78
2022-09-14T02:28:15.204Z,100670.47
2022-09-14T02:31:40.235Z,100677.63
2022-09-14T02:38:29.964Z,100672.03
2022-09-14T02:41:38.079Z,100677.81
2022-09-14T02:55:25.118Z,100657.38
2022-09-14T02:58:40.498Z,100656.81
2022-09-14T03:05:50.415Z,100668.97
2022-09-14T03:09:09.208Z,100670.06
2022-09-14T03:19:23.879Z,100666.59
2022-09-14T03:25:40.697Z,100662.63
2022-09-14T03:28:24.490Z,100667.06
2022-09-14T03:31:14.568Z,100669.25
2022-09-14T03:37:29.946Z,100663.56
2022-09-14T03:39:58.931Z,100670.47
2022-09-14T03:42:26.622Z,100669.88
2022-09-14T03:45:32.852Z,100667.34
2022-09-14T03:48:16.841Z,100665.69
2022-09-14T03:55:10.468Z,100670.06
2022-09-14T03:58:37.950Z,100675.03
2022-09-14T04:01:33.330Z,100673.34
2022-09-14T04:07:47.777Z,100673.59
2022-09-14T04:10:33.724Z,100679.38
2022-09-14T04:13:36.044Z,100670.56
2022-09-14T04:16:05.021Z,100666.13
2022-09-14T04:22:13.395Z,100659.50
2022-09-14T04:24:47.823Z,100660.91
2022-09-14T04:31:03.024Z,100646.53
2022-09-14T04:37:17.724Z,100647.38
2022-09-14T04:43:51.257Z,100658.44
2022-09-14T04:46:33.378Z,100650.66
2022-09-14T04:52:41.518Z,100665.69
2022-09-14T04:55:11.624Z,100664.59
2022-09-14T04:57:41.476Z,100663.25
2022-09-14T05:00:12.963Z,100663.25
2022-09-14T05:03:26.992Z,100662.75
2022-09-14T05:06:10.790Z,100660.81
2022-09-14T05:09:35.704Z,100669.72
2022-09-14T05:19:48.782Z,100668.28
2022-09-14T05:22:23.600Z,100675.84
2022-09-14T05:24:51.415Z,100674.75
2022-09-14T05:28:16.424Z,100683.06
2022-09-14T05:34:25.855Z,100682.38
2022-09-14T05:37:11.718Z,100687.44
2022-09-14T05:39:56.690Z,100691.28
2022-09-14T05:42:30.757Z,100683.22
2022-09-14T05:45:30.366Z,100692.72
2022-09-14T05:48:05.651Z,100690.47
2022-09-14T05:50:36.256Z,100695.16
2022-09-14T05:53:31.457Z,100697.69
2022-09-14T05:56:14.202Z,100684.56
2022-09-14T05:58:56.209Z,100687.44
2022-09-14T06:01:37.247Z,100692.13
2022-09-14T06:04:54.376Z,100696.34
2022-09-14T06:08:06.706Z,100697.44
2022-09-14T06:10:39.259Z,100698.03
2022-09-14T06:18:22.204Z,100703.22
2022-09-14T06:22:04.328Z,100706.25
2022-09-14T06:24:36.427Z,100706.50
2022-09-14T06:27:31.977Z,100710.94
2022-09-14T06:30:08.146Z,100710.09
2022-09-14T06:32:42.991Z,100710.44
2022-09-14T06:35:12.572Z,100710.19
2022-09-14T06:37:44.832Z,100711.63
2022-09-14T06:40:54.645Z,100706.94
2022-09-14T06:43:36.882Z,100709.69
2022-09-14T06:46:22.740Z,100711.03
2022-09-14T06:49:09.002Z,100712.53
2022-09-14T06:51:43.494Z,100717.56
2022-09-14T06:54:14.625Z,100716.84
2022-09-14T06:56:51.061Z,100718.88
2022-09-14T06:59:21.000Z,100721.19
2022-09-14T07:02:01.841Z,100724.38
2022-09-14T07:04:31.232Z,100719.50
2022-09-14T07:07:09.032Z,100726.53
2022-09-14T07:12:32.203Z,100729.22
2022-09-14T07:15:18.723Z,100733.47
2022-09-14T07:18:23.839Z,100740.38
2022-09-14T07:20:54.681Z,100738.91
2022-09-14T08:17:54.655Z,100770.25
2022-09-14T08:20:23.536Z,100768.31
2022-09-14T08:22:52.255Z,100779.47
2022-09-14T08:25:36.216Z,100772.84
2022-09-14T08:28:22.846Z,100770.66
2022-09-14T08:31:28.298Z,100781.59
2022-09-14T08:34:08.216Z,100779.16
2022-09-14T08:41:08.895Z,100800.88
2022-09-14T08:44:19.055Z,100797.72
2022-09-14T08:47:27.221Z,100810.50
2022-09-14T08:50:09.566Z,100812.41
2022-09-14T08:53:07.887Z,100810.75
2022-09-14T08:55:50.855Z,100814.13
2022-09-14T08:58:53.381Z,100813.34
2022-09-14T09:01:49.527Z,100825.44
2022-09-14T09:05:08.616Z,100827.38
2022-09-14T09:07:53.216Z,100830.72
2022-09-14T09:10:22.534Z,100826.34
2022-09-14T09:13:02.657Z,100835.88
2022-09-14T09:15:51.682Z,100819.47
2022-09-14T09:18:43.466Z,100836.78
2022-09-14T09:21:18.619Z,100849.06
2022-09-14T09:23:47.016Z,100841.03
2022-09-14T09:26:32.608Z,100834.06
2022-09-14T09:29:04.131Z,100845.78
2022-09-14T09:31:43.011Z,100840.19
2022-09-14T09:34:15.294Z,100853.59
2022-09-14T09:36:51.065Z,100859.44
2022-09-14T09:39:19.318Z,100862.28
2022-09-14T09:42:04.894Z,100858.63
2022-09-14T09:45:02.182Z,100865.31
2022-09-14T09:47:35.321Z,100867.56
2022-09-14T09:50:16.807Z,100868.34
2022-09-14T09:53:20.899Z,100866.09
2022-09-14T09:55:52.728Z,100871.09
2022-09-14T09:58:37.727Z,100879.50
2022-09-14T10:01:19.709Z,100875.88
2022-09-14T10:04:04.928Z,100878.16
2022-09-14T10:06:32.843Z,100886.00
2022-09-14T10:09:00.999Z,100883.78
2022-09-14T10:11:38.367Z,100896.88
2022-09-14T10:18:17.928Z,100883.47
2022-09-14T10:21:06.651Z,100891.56
2022-09-14T10:23:38.679Z,100890.19
2022-09-14T10:26:15.561Z,100905.50
2022-09-14T10:28:44.759Z,100885.09
2022-09-14T10:31:32.178Z,100894.84
2022-09-14T10:34:00.016Z,100899.88
2022-09-14T10:36:34.321Z,100898.25
2022-09-14T10:39:26.240Z,100903.56
2022-09-14T10:42:03.292Z,100899.38
2022-09-14T10:45:02.238Z,100894.88
2022-09-14T10:47:52.737Z,100899.53
2022-09-14T10:50:28.425Z,100893.06
2022-09-14T10:52:59.478Z,100892.84
2022-09-14T10:55:43.063Z,100887.09
2022-09-14T10:58:26.266Z,100888.34
2022-09-14T11:01:32.713Z,100896.63
2022-09-14T11:04:09.223Z,100891.41
2022-09-14T11:07:01.210Z,100890.16
2022-09-14T11:09:34.525Z,100892.06
2022-09-14T11:12:08.891Z,100899.59
2022-09-14T11:15:04.319Z,100892.44
2022-09-14T11:17:35.505Z,100885.06
2022-09-14T11:20:32.018Z,100885.66
2022-09-14T11:23:20.582Z,100894.56
2022-09-14T11:25:48.696Z,100888.03
2022-09-14T11:28:19.007Z,100883.78
2022-09-14T11:31:02.858Z,100890.16
2022-09-14T11:33:37.918Z,100876.09
2022-09-14T11:36:20.505Z,100876.63
2022-09-14T11:39:06.136Z,100888.38
2022-09-14T11:41:44.497Z,100879.16
2022-09-14T11:44:40.461Z,100879.47
2022-09-14T11:47:15.656Z,100883.44
2022-09-14T11:50:10.903Z,100888.84
2022-09-14T11:52:38.679Z,100883.34
2022-09-14T11:55:11.409Z,100883.19
2022-09-14T11:57:39.379Z,100874.50
2022-09-14T12:00:36.487Z,100873.63
2022-09-14T12:03:51.136Z,100880.19
2022-09-14T12:06:31.596Z,100883.41
2022-09-14T12:09:21.750Z,100884.56
2022-09-14T12:11:49.522Z,100896.88
2022-09-14T12:14:28.829Z,100897.13
2022-09-14T12:20:33.638Z,100904.25
2022-09-14T12:23:21.832Z,100893.00
2022-09-14T12:26:02.598Z,100879.56
2022-09-14T12:28:36.177Z,100876.03
2022-09-14T12:31:06.730Z,100880.91
2022-09-14T12:33:34.523Z,100877.91
2022-09-14T12:36:11.959Z,100886.97
2022-09-14T12:39:06.150Z,100888.84
2022-09-14T12:41:41.583Z,100884.69
2022-09-14T12:44:43.492Z,100879.75
2022-09-14T12:47:26.477Z,100886.63
2022-09-14T12:49:54.364Z,100879.06
2022-09-14T12:52:58.945Z,100890.94
2022-09-14T12:56:07.751Z,100888.16
2022-09-14T12:58:51.586Z,100890.25
2022-09-14T13:01:51.311Z,100888.22
2022-09-14T13:04:35.361Z,100893.13
2022-09-14T13:07:07.177Z,100884.19
2022-09-14T13:09:35.202Z,100890.16
2022-09-14T13:12:07.033Z,100890.22
2022-09-14T13:15:04.515Z,100889.97
2022-09-14T13:17:32.278Z,100894.22
2022-09-14T13:20:04.523Z,100896.25
2022-09-14T13:22:33.771Z,100885.91
2022-09-14T13:25:04.738Z,100891.81
2022-09-14T13:27:34.431Z,100884.19
2022-09-14T13:30:09.458Z,100890.84
2022-09-14T13:32:41.780Z,100890.69
2022-09-14T13:35:21.012Z,100894.38
2022-09-14T13:37:48.987Z,100890.44
2022-09-14T13:40:17.589Z,100882.00
2022-09-14T13:42:46.138Z,100890.44
2022-09-14T13:45:14.557Z,100877.06
2022-09-14T13:47:42.328Z,100885.47
2022-09-14T13:50:13.371Z,100889.69
2022-09-14T13:53:02.255Z,100886.38
2022-09-14T13:55:43.914Z,100887.44
2022-09-14T13:58:23.132Z,100870.59
2022-09-14T14:01:00.578Z,100891.09
2022-09-14T14:03:39.720Z,100876.56
2022-09-14T14:06:28.109Z,100879.81
2022-09-14T14:09:17.479Z,100886.16
2022-09-14T14:11:52.520Z,100876.94
2022-09-14T14:14:31.036Z,100878.97
2022-09-14T14:17:14.472Z,100872.41
2022-09-14T14:19:44.651Z,100865.78
2022-09-14T14:22:14.964Z,100869.88
2022-09-14T14:25:12.309Z,100866.16
2022-09-14T14:27:46.407Z,100861.00
2022-09-14T14:30:39.239Z,100866.06
2022-09-14T14:33:10.716Z,100866.69
2022-09-14T14:35:38.392Z,100864.75
2022-09-14T14:38:06.369Z,100861.91
2022-09-14T14:40:38.289Z,100872.44
2022-09-14T14:43:06.472Z,100864.25
2022-09-14T14:45:36.533Z,100873.34
2022-09-14T14:48:05.640Z,100866.16
2022-09-14T14:50:34.641Z,100865.38
2022-09-14T14:53:03.675Z,100859.31
2022-09-14T14:55:32.344Z,100866.75
2022-09-14T14:58:26.661Z,100874.72
2022-09-14T15:01:03.632Z,100854.88
2022-09-14T15:03:44.291Z,100855.53
2022-09-14T15:06:21.660Z,100866.97
2022-09-14T15:08:55.281Z,100858.91
2022-09-14T15:11:42.256Z,100862.16
2022-09-14T15:14:18.747Z,100853.38
2022-09-14T15:17:05.042Z,100850.03
2022-09-14T15:19:53.999Z,100861.97
2022-09-14T15:22:56.694Z,100854.84
2022-09-14T15:25:42.039Z,100866.63
2022-09-14T15:28:29.645Z,100855.25
2022-09-14T15:31:16.737Z,100868.56
2022-09-14T15:37:05.195Z,100860.59
2022-09-14T15:39:48.155Z,100870.53
2022-09-14T15:42:31.434Z,100859.13
2022-09-14T15:45:43.011Z,100881.09
2022-09-14T15:48:31.583Z,100866.44
2022-09-14T15:51:11.229Z,100870.47
2022-09-14T15:53:58.911Z,100877.09
2022-09-14T15:56:26.879Z,100867.75
2022-09-14T15:59:04.707Z,100864.72
2022-09-14T16:01:46.629Z,100864.75
2022-09-14T16:04:22.548Z,100859.66
2022-09-14T16:07:00.957Z,100870.16
2022-09-14T16:09:29.858Z,100850.44
2022-09-14T16:12:11.833Z,100864.22
2022-09-14T16:14:48.948Z,100864.88
2022-09-14T16:17:34.060Z,100874.19
2022-09-14T16:20:09.487Z,100875.63
2022-09-14T16:23:03.474Z,100885.53
2022-09-14T16:25:47.490Z,100890.13
2022-09-14T16:28:30.257Z,100879.44
2022-09-14T16:31:28.449Z,100870.78
2022-09-14T16:34:22.348Z,100887.19
2022-09-14T16:36:52.984Z,100885.91
2022-09-14T16:39:25.815Z,100897.19
2022-09-14T16:41:56.239Z,100882.75
2022-09-14T16:44:26.504Z,100892.59
2022-09-14T16:46:55.025Z,100895.44
2022-09-14T16:49:27.196Z,100908.03
2022-09-14T16:51:57.348Z,100914.19
2022-09-14T16:54:26.443Z,100914.56
2022-09-14T16:56:57.460Z,100910.38
2022-09-14T16:59:26.702Z,100909.53
2022-09-14T17:01:55.422Z,100916.16
2022-09-14T17:04:24.427Z,100909.91
2022-09-14T17:06:52.817Z,100913.75
2022-09-14T17:09:23.874Z,100907.06
2022-09-14T17:11:52.005Z,100898.16
2022-09-14T17:14:21.469Z,100904.31
2022-09-14T17:16:50.079Z,100902.91
2022-09-14T17:19:18.447Z,100912.72
2022-09-14T17:21:46.591Z,100927.03
2022-09-14T17:24:15.758Z,100914.88
2022-09-14T17:26:43.977Z,100921.09
2022-09-14T17:29:14.594Z,100921.13
2022-09-14T17:31:44.977Z,100911.44
2022-09-14T17:43:29.265Z,100923.88
2022-09-14T17:46:20.323Z,100916.03
2022-09-14T17:53:16.561Z,100918.88
2022-09-14T19:52:04.736Z,101046.09
2022-09-14T19:54:33.540Z,101031.53
2022-09-14T19:57:02.415Z,101037.66
2022-09-14T19:59:30.614Z,101047.69
2022-09-14T20:01:59.806Z,101046.00
2022-09-14T20:04:28.278Z,101050.44
2022-09-14T20:06:56.983Z,101056.00
2022-09-14T20:09:25.083Z,101053.19
2022-09-14T20:11:53.801Z,101052.03
2022-09-14T20:14:24.491Z,101062.59
2022-09-14T20:16:58.267Z,101069.28
2022-09-14T20:19:28.009Z,101061.44
2022-09-14T20:21:55.692Z,101073.69
2022-09-14T20:24:26.311Z,101066.44
2022-09-14T20:26:55.880Z,101076.47
2022-09-14T20:29:24.822Z,101079.25
2022-09-14T20:31:54.197Z,101080.34
2022-09-14T20:34:22.155Z,101080.34
2022-09-14T20:36:52.441Z,101091.22
2022-09-14T20:39:20.822Z,101083.13
2022-09-14T20:41:49.619Z,101086.75
2022-09-14T20:44:17.726Z,101090.91
2022-09-14T20:46:47.889Z,101098.72
2022-09-14T20:49:18.958Z,101088.09
2022-09-14T20:51:47.140Z,101097.03
2022-09-14T20:54:17.755Z,101100.41
2022-09-14T20:56:46.809Z,101116.56
2022-09-14T20:59:16.225Z,101114.88
2022-09-14T21:01:46.033Z,101109.31
2022-09-14T21:04:20.140Z,101118.81
2022-09-14T21:06:49.716Z,101118.81
2022-09-14T21:09:18.863Z,101121.88
2022-09-14T21:11:48.861Z,101106.19
2022-09-14T21:14:17.985Z,101105.91
2022-09-14T21:24:44.939Z,101119.59
2022-09-14T21:27:12.669Z,101117.13
2022-09-14T21:29:40.657Z,101107.53
2022-09-14T21:36:47.575Z,101125.19
2022-09-14T21:39:23.852Z,101126.56
2022-09-14T21:41:58.747Z,101124.00
2022-09-14T21:44:36.288Z,101134.34
2022-09-14T21:47:04.158Z,101133.50
2022-09-14T21:49:32.031Z,101129.81
2022-09-14T21:52:02.192Z,101138.81
2022-09-14T21:54:30.429Z,101129.22
2022-09-14T21:56:58.640Z,101135.91
2022-09-14T21:59:26.354Z,101130.59
2022-09-14T22:01:54.164Z,101126.38
2022-09-14T22:04:23.188Z,101131.91
2022-09-14T22:06:52.337Z,101129.13
2022-09-14T22:09:22.108Z,101147.56
2022-09-14T22:11:49.773Z,101153.94
2022-09-14T22:14:20.241Z,101161.97
2022-09-14T22:24:31.243Z,101144.13
2022-09-14T22:27:02.434Z,101156.09
2022-09-14T22:29:31.159Z,101154.41
2022-09-14T22:31:58.856Z,101162.78
2022-09-14T22:34:26.714Z,101165.22
2022-09-14T22:36:55.067Z,101166.56
2022-09-14T22:39:22.723Z,101165.09
2022-09-14T22:41:51.161Z,101165.94
2022-09-14T22:44:19.271Z,101158.88
2022-09-14T22:46:48.343Z,101169.75
2022-09-14T22:49:17.118Z,101169.66
2022-09-14T22:51:45.118Z,101170.75
2022-09-14T22:54:12.927Z,101178.53
2022-09-14T22:56:41.834Z,101174.00
2022-09-14T22:59:10.535Z,101166.75
2022-09-14T23:01:40.530Z,101168.34
2022-09-14T23:04:12.409Z,101167.50
2022-09-14T23:06:45.324Z,101168.34
2022-09-14T23:09:16.690Z,101168.03
2022-09-14T23:11:45.284Z,101167.69
2022-09-14T23:14:14.991Z,101173.25
2022-09-14T23:16:43.567Z,101176.63
2022-09-14T23:19:15.062Z,101167.69
2022-09-14T23:21:43.880Z,101167.69
2022-09-14T23:24:11.660Z,101171.56
2022-09-14T23:26:42.010Z,101162.63
2022-09-14T23:29:13.166Z,101172.06
2022-09-14T23:31:42.157Z,101162.56
2022-09-14T23:34:10.281Z,101173.69
2022-09-14T23:36:38.265Z,101164.41
2022-09-14T23:39:06.043Z,101171.91
2022-09-14T23:41:33.637Z,101175.78
2022-09-14T23:44:02.736Z,101169.41
2022-09-14T23:46:32.354Z,101163.97
2022-09-14T23:49:00.058Z,101164.75
2022-09-14T23:51:27.781Z,101170.63
2022-09-14T23:53:55.715Z,101168.38
2022-09-14T23:56:23.294Z,101169.38
2022-09-14T23:58:51.134Z,101163.81
